sensor_id;sensor_type;location;lat;lon;timestamp;P1;durP1;ratioP1;P2;durP2;ratioP2
78840;SDS011;68379;47.190;27.558;2023-07-13T00:01:09;9.60;;;7.90;;
78840;SDS011;68379;47.190;27.558;2023-07-13T00:03:42;11.50;;;8.70;;
78840;SDS011;68379;47.190;27.558;2023-07-13T00:06:11;13.30;;;9.20;;
78840;SDS011;68379;47.190;27.558;2023-07-13T00:08:40;11.50;;;8.10;;
78840;SDS011;68379;47.190;27.558;2023-07-13T00:11:09;11.70;;;7.90;;
78840;SDS011;68379;47.190;27.558;2023-07-13T00:13:38;11.60;;;8.30;;
78840;SDS011;68379;47.190;27.558;2023-07-13T00:16:08;9.10;;;7.90;;
78840;SDS011;68379;47.190;27.558;2023-07-13T00:18:38;10.50;;;7.70;;
78840;SDS011;68379;47.190;27.558;2023-07-13T00:21:07;11.90;;;8.30;;
78840;SDS011;68379;47.190;27.558;2023-07-13T00:23:36;12.40;;;9.30;;
78840;SDS011;68379;47.190;27.558;2023-07-13T00:26:09;11.90;;;9.00;;
78840;SDS011;68379;47.190;27.558;2023-07-13T00:28:39;10.80;;;8.20;;
78840;SDS011;68379;47.190;27.558;2023-07-13T00:31:09;11.40;;;8.60;;
78840;SDS011;68379;47.190;27.558;2023-07-13T00:33:39;11.80;;;7.80;;
78840;SDS011;68379;47.190;27.558;2023-07-13T00:36:09;13.70;;;8.80;;
78840;SDS011;68379;47.190;27.558;2023-07-13T00:38:38;11.40;;;7.90;;
78840;SDS011;68379;47.190;27.558;2023-07-13T00:41:08;10.40;;;8.10;;
78840;SDS011;68379;47.190;27.558;2023-07-13T00:43:37;10.60;;;8.50;;
78840;SDS011;68379;47.190;27.558;2023-07-13T00:48:57;13.20;;;8.40;;
78840;SDS011;68379;47.190;27.558;2023-07-13T00:51:30;10.30;;;8.30;;
78840;SDS011;68379;47.190;27.558;2023-07-13T00:54:03;10.60;;;8.30;;
78840;SDS011;68379;47.190;27.558;2023-07-13T00:56:34;10.30;;;7.80;;
78840;SDS011;68379;47.190;27.558;2023-07-13T00:59:05;13.60;;;8.40;;
78840;SDS011;68379;47.190;27.558;2023-07-13T01:01:35;11.70;;;8.20;;
78840;SDS011;68379;47.190;27.558;2023-07-13T01:04:06;10.20;;;7.80;;
78840;SDS011;68379;47.190;27.558;2023-07-13T01:06:35;9.00;;;7.30;;
78840;SDS011;68379;47.190;27.558;2023-07-13T01:09:05;11.00;;;8.40;;
78840;SDS011;68379;47.190;27.558;2023-07-13T01:11:37;11.50;;;8.40;;
78840;SDS011;68379;47.190;27.558;2023-07-13T01:14:06;14.00;;;9.10;;
78840;SDS011;68379;47.190;27.558;2023-07-13T01:16:36;10.50;;;7.80;;
78840;SDS011;68379;47.190;27.558;2023-07-13T01:19:07;11.70;;;8.50;;
78840;SDS011;68379;47.190;27.558;2023-07-13T01:21:50;12.90;;;8.70;;
78840;SDS011;68379;47.190;27.558;2023-07-13T01:24:19;12.30;;;7.90;;
78840;SDS011;68379;47.190;27.558;2023-07-13T01:26:49;11.70;;;8.40;;
78840;SDS011;68379;47.190;27.558;2023-07-13T01:29:18;10.40;;;8.10;;
78840;SDS011;68379;47.190;27.558;2023-07-13T01:31:47;10.40;;;8.20;;
78840;SDS011;68379;47.190;27.558;2023-07-13T01:34:15;9.90;;;8.60;;
78840;SDS011;68379;47.190;27.558;2023-07-13T01:36:44;11.00;;;7.30;;
78840;SDS011;68379;47.190;27.558;2023-07-13T01:39:13;9.20;;;7.20;;
78840;SDS011;68379;47.190;27.558;2023-07-13T01:41:42;11.40;;;6.70;;
78840;SDS011;68379;47.190;27.558;2023-07-13T01:44:29;10.10;;;6.80;;
78840;SDS011;68379;47.190;27.558;2023-07-13T01:46:58;8.70;;;6.40;;
78840;SDS011;68379;47.190;27.558;2023-07-13T01:49:28;9.50;;;7.30;;
78840;SDS011;68379;47.190;27.558;2023-07-13T01:51:57;8.90;;;6.90;;
78840;SDS011;68379;47.190;27.558;2023-07-13T01:54:26;9.00;;;6.20;;
78840;SDS011;68379;47.190;27.558;2023-07-13T01:56:55;8.20;;;5.80;;
78840;SDS011;68379;47.190;27.558;2023-07-13T01:59:24;9.30;;;5.80;;
78840;SDS011;68379;47.190;27.558;2023-07-13T02:01:53;12.50;;;5.80;;
78840;SDS011;68379;47.190;27.558;2023-07-13T02:04:22;12.00;;;6.20;;
78840;SDS011;68379;47.190;27.558;2023-07-13T02:06:51;8.50;;;5.80;;
78840;SDS011;68379;47.190;27.558;2023-07-13T02:09:22;9.50;;;5.90;;
78840;SDS011;68379;47.190;27.558;2023-07-13T02:11:51;8.30;;;6.40;;
78840;SDS011;68379;47.190;27.558;2023-07-13T02:14:20;9.20;;;6.30;;
78840;SDS011;68379;47.190;27.558;2023-07-13T02:16:49;12.00;;;6.50;;
78840;SDS011;68379;47.190;27.558;2023-07-13T02:19:18;8.30;;;5.40;;
78840;SDS011;68379;47.190;27.558;2023-07-13T02:21:47;7.90;;;5.80;;
78840;SDS011;68379;47.190;27.558;2023-07-13T02:24:16;7.50;;;6.00;;
78840;SDS011;68379;47.190;27.558;2023-07-13T02:26:47;8.80;;;5.60;;
78840;SDS011;68379;47.190;27.558;2023-07-13T02:29:16;7.00;;;5.10;;
78840;SDS011;68379;47.190;27.558;2023-07-13T02:31:45;9.00;;;5.50;;
78840;SDS011;68379;47.190;27.558;2023-07-13T02:34:14;9.90;;;5.40;;
78840;SDS011;68379;47.190;27.558;2023-07-13T02:36:44;8.00;;;4.80;;
78840;SDS011;68379;47.190;27.558;2023-07-13T02:39:13;8.30;;;5.50;;
78840;SDS011;68379;47.190;27.558;2023-07-13T02:41:42;8.60;;;5.70;;
78840;SDS011;68379;47.190;27.558;2023-07-13T02:44:12;7.00;;;5.00;;
78840;SDS011;68379;47.190;27.558;2023-07-13T02:46:42;10.30;;;5.50;;
78840;SDS011;68379;47.190;27.558;2023-07-13T02:49:11;9.50;;;5.60;;
78840;SDS011;68379;47.190;27.558;2023-07-13T02:51:40;7.10;;;4.70;;
78840;SDS011;68379;47.190;27.558;2023-07-13T02:54:09;7.80;;;4.70;;
78840;SDS011;68379;47.190;27.558;2023-07-13T02:56:41;7.00;;;5.10;;
78840;SDS011;68379;47.190;27.558;2023-07-13T02:59:10;7.80;;;4.90;;
78840;SDS011;68379;47.190;27.558;2023-07-13T03:01:39;5.30;;;4.10;;
78840;SDS011;68379;47.190;27.558;2023-07-13T03:04:08;5.90;;;3.70;;
78840;SDS011;68379;47.190;27.558;2023-07-13T03:06:37;8.50;;;5.30;;
78840;SDS011;68379;47.190;27.558;2023-07-13T03:09:06;6.30;;;4.40;;
78840;SDS011;68379;47.190;27.558;2023-07-13T03:11:35;8.10;;;4.60;;
78840;SDS011;68379;47.190;27.558;2023-07-13T03:14:04;6.90;;;4.60;;
78840;SDS011;68379;47.190;27.558;2023-07-13T03:16:33;6.00;;;4.40;;
78840;SDS011;68379;47.190;27.558;2023-07-13T03:19:02;5.50;;;4.10;;
78840;SDS011;68379;47.190;27.558;2023-07-13T03:21:31;7.20;;;4.40;;
78840;SDS011;68379;47.190;27.558;2023-07-13T03:24:00;6.40;;;3.70;;
78840;SDS011;68379;47.190;27.558;2023-07-13T03:26:29;7.50;;;4.00;;
78840;SDS011;68379;47.190;27.558;2023-07-13T03:28:58;6.40;;;4.70;;
78840;SDS011;68379;47.190;27.558;2023-07-13T03:31:28;5.60;;;4.40;;
78840;SDS011;68379;47.190;27.558;2023-07-13T03:34:02;8.80;;;5.10;;
78840;SDS011;68379;47.190;27.558;2023-07-13T03:36:31;7.40;;;5.30;;
78840;SDS011;68379;47.190;27.558;2023-07-13T03:39:01;8.50;;;5.30;;
78840;SDS011;68379;47.190;27.558;2023-07-13T03:41:35;8.70;;;5.20;;
78840;SDS011;68379;47.190;27.558;2023-07-13T03:44:05;8.10;;;5.10;;
78840;SDS011;68379;47.190;27.558;2023-07-13T03:46:34;10.10;;;5.50;;
78840;SDS011;68379;47.190;27.558;2023-07-13T03:49:03;6.70;;;4.90;;
78840;SDS011;68379;47.190;27.558;2023-07-13T03:51:33;7.90;;;4.70;;
78840;SDS011;68379;47.190;27.558;2023-07-13T03:54:02;7.90;;;5.30;;
78840;SDS011;68379;47.190;27.558;2023-07-13T03:56:31;7.00;;;4.60;;
78840;SDS011;68379;47.190;27.558;2023-07-13T03:59:00;8.50;;;5.10;;
78840;SDS011;68379;47.190;27.558;2023-07-13T04:01:29;6.80;;;4.70;;
78840;SDS011;68379;47.190;27.558;2023-07-13T04:03:59;7.60;;;5.00;;
78840;SDS011;68379;47.190;27.558;2023-07-13T04:06:29;7.50;;;5.40;;
78840;SDS011;68379;47.190;27.558;2023-07-13T04:09:00;8.50;;;5.50;;
78840;SDS011;68379;47.190;27.558;2023-07-13T04:11:32;6.20;;;5.00;;
78840;SDS011;68379;47.190;27.558;2023-07-13T04:14:03;5.70;;;5.00;;
78840;SDS011;68379;47.190;27.558;2023-07-13T04:16:32;11.00;;;5.00;;
78840;SDS011;68379;47.190;27.558;2023-07-13T04:19:01;7.80;;;4.80;;
78840;SDS011;68379;47.190;27.558;2023-07-13T04:21:30;6.80;;;4.70;;
78840;SDS011;68379;47.190;27.558;2023-07-13T04:24:00;7.00;;;4.80;;
78840;SDS011;68379;47.190;27.558;2023-07-13T04:26:29;6.70;;;4.80;;
78840;SDS011;68379;47.190;27.558;2023-07-13T04:29:03;8.20;;;5.80;;
78840;SDS011;68379;47.190;27.558;2023-07-13T04:31:32;8.00;;;5.80;;
78840;SDS011;68379;47.190;27.558;2023-07-13T04:34:01;8.00;;;4.30;;
78840;SDS011;68379;47.190;27.558;2023-07-13T04:36:31;8.00;;;5.00;;
78840;SDS011;68379;47.190;27.558;2023-07-13T04:41:34;6.50;;;4.50;;
78840;SDS011;68379;47.190;27.558;2023-07-13T04:44:03;8.00;;;5.00;;
78840;SDS011;68379;47.190;27.558;2023-07-13T04:46:32;10.00;;;5.60;;
78840;SDS011;68379;47.190;27.558;2023-07-13T04:49:02;9.60;;;5.90;;
78840;SDS011;68379;47.190;27.558;2023-07-13T04:51:31;8.40;;;5.70;;
78840;SDS011;68379;47.190;27.558;2023-07-13T04:54:01;8.30;;;5.50;;
78840;SDS011;68379;47.190;27.558;2023-07-13T04:56:35;9.10;;;5.30;;
78840;SDS011;68379;47.190;27.558;2023-07-13T04:59:04;7.00;;;4.80;;
78840;SDS011;68379;47.190;27.558;2023-07-13T05:01:34;7.80;;;5.00;;
78840;SDS011;68379;47.190;27.558;2023-07-13T05:04:03;7.20;;;5.10;;
78840;SDS011;68379;47.190;27.558;2023-07-13T05:06:32;7.00;;;4.80;;
78840;SDS011;68379;47.190;27.558;2023-07-13T05:09:02;7.40;;;5.60;;
78840;SDS011;68379;47.190;27.558;2023-07-13T05:11:31;6.90;;;6.00;;
78840;SDS011;68379;47.190;27.558;2023-07-13T05:14:00;7.00;;;5.70;;
78840;SDS011;68379;47.190;27.558;2023-07-13T05:16:30;9.20;;;5.90;;
78840;SDS011;68379;47.190;27.558;2023-07-13T05:18:59;9.60;;;5.60;;
78840;SDS011;68379;47.190;27.558;2023-07-13T05:21:30;8.10;;;5.40;;
78840;SDS011;68379;47.190;27.558;2023-07-13T05:23:59;7.70;;;5.60;;
78840;SDS011;68379;47.190;27.558;2023-07-13T05:26:28;9.10;;;6.00;;
78840;SDS011;68379;47.190;27.558;2023-07-13T05:28:59;8.90;;;6.50;;
78840;SDS011;68379;47.190;27.558;2023-07-13T05:31:28;9.20;;;5.80;;
78840;SDS011;68379;47.190;27.558;2023-07-13T05:33:58;8.40;;;5.90;;
78840;SDS011;68379;47.190;27.558;2023-07-13T05:36:28;8.50;;;4.80;;
78840;SDS011;68379;47.190;27.558;2023-07-13T05:38:57;6.90;;;5.10;;
78840;SDS011;68379;47.190;27.558;2023-07-13T05:41:27;7.70;;;5.50;;
78840;SDS011;68379;47.190;27.558;2023-07-13T05:43:56;7.40;;;5.50;;
78840;SDS011;68379;47.190;27.558;2023-07-13T05:46:26;9.70;;;6.40;;
78840;SDS011;68379;47.190;27.558;2023-07-13T05:48:56;7.60;;;5.60;;
78840;SDS011;68379;47.190;27.558;2023-07-13T05:51:25;9.90;;;6.50;;
78840;SDS011;68379;47.190;27.558;2023-07-13T05:53:55;8.50;;;6.10;;
78840;SDS011;68379;47.190;27.558;2023-07-13T05:56:25;8.60;;;6.70;;
78840;SDS011;68379;47.190;27.558;2023-07-13T05:58:54;7.40;;;6.00;;
78840;SDS011;68379;47.190;27.558;2023-07-13T06:01:24;15.70;;;6.60;;
78840;SDS011;68379;47.190;27.558;2023-07-13T06:03:53;8.00;;;6.20;;
78840;SDS011;68379;47.190;27.558;2023-07-13T06:06:23;9.80;;;6.60;;
78840;SDS011;68379;47.190;27.558;2023-07-13T06:08:52;13.00;;;7.00;;
78840;SDS011;68379;47.190;27.558;2023-07-13T06:11:25;13.40;;;6.50;;
78840;SDS011;68379;47.190;27.558;2023-07-13T06:13:57;15.60;;;6.70;;
78840;SDS011;68379;47.190;27.558;2023-07-13T06:16:26;11.60;;;7.00;;
78840;SDS011;68379;47.190;27.558;2023-07-13T06:18:56;11.00;;;7.00;;
78840;SDS011;68379;47.190;27.558;2023-07-13T06:21:25;11.20;;;7.10;;
78840;SDS011;68379;47.190;27.558;2023-07-13T06:23:54;10.20;;;7.30;;
78840;SDS011;68379;47.190;27.558;2023-07-13T06:26:24;12.70;;;7.20;;
78840;SDS011;68379;47.190;27.558;2023-07-13T06:28:54;11.10;;;7.40;;
78840;SDS011;68379;47.190;27.558;2023-07-13T06:31:23;12.60;;;7.20;;
78840;SDS011;68379;47.190;27.558;2023-07-13T06:33:53;16.10;;;7.40;;
78840;SDS011;68379;47.190;27.558;2023-07-13T06:36:22;13.40;;;7.30;;
78840;SDS011;68379;47.190;27.558;2023-07-13T06:38:52;9.10;;;7.30;;
78840;SDS011;68379;47.190;27.558;2023-07-13T06:41:21;13.00;;;7.50;;
78840;SDS011;68379;47.190;27.558;2023-07-13T06:43:53;12.60;;;7.20;;
78840;SDS011;68379;47.190;27.558;2023-07-13T06:46:23;10.10;;;7.00;;
78840;SDS011;68379;47.190;27.558;2023-07-13T06:48:52;10.60;;;7.10;;
78840;SDS011;68379;47.190;27.558;2023-07-13T06:51:22;8.90;;;7.20;;
78840;SDS011;68379;47.190;27.558;2023-07-13T06:53:53;11.70;;;7.80;;
78840;SDS011;68379;47.190;27.558;2023-07-13T06:56:23;13.50;;;6.90;;
78840;SDS011;68379;47.190;27.558;2023-07-13T06:58:52;11.90;;;8.50;;
78840;SDS011;68379;47.190;27.558;2023-07-13T07:01:21;11.90;;;7.20;;
78840;SDS011;68379;47.190;27.558;2023-07-13T07:03:50;10.30;;;7.50;;
78840;SDS011;68379;47.190;27.558;2023-07-13T07:06:20;15.80;;;7.30;;
78840;SDS011;68379;47.190;27.558;2023-07-13T07:08:51;12.20;;;7.30;;
78840;SDS011;68379;47.190;27.558;2023-07-13T07:11:22;11.60;;;7.40;;
78840;SDS011;68379;47.190;27.558;2023-07-13T07:13:53;12.70;;;7.10;;
78840;SDS011;68379;47.190;27.558;2023-07-13T07:16:25;10.60;;;8.40;;
78840;SDS011;68379;47.190;27.558;2023-07-13T07:18:55;11.60;;;7.30;;
78840;SDS011;68379;47.190;27.558;2023-07-13T07:21:24;11.10;;;7.70;;
78840;SDS011;68379;47.190;27.558;2023-07-13T07:23:54;11.10;;;7.10;;
78840;SDS011;68379;47.190;27.558;2023-07-13T07:26:23;10.50;;;6.90;;
78840;SDS011;68379;47.190;27.558;2023-07-13T07:28:53;8.70;;;6.40;;
78840;SDS011;68379;47.190;27.558;2023-07-13T07:31:23;10.30;;;6.40;;
78840;SDS011;68379;47.190;27.558;2023-07-13T07:33:52;9.90;;;7.10;;
78840;SDS011;68379;47.190;27.558;2023-07-13T07:36:21;9.20;;;6.60;;
78840;SDS011;68379;47.190;27.558;2023-07-13T07:38:51;10.40;;;6.90;;
78840;SDS011;68379;47.190;27.558;2023-07-13T07:41:20;9.50;;;6.90;;
78840;SDS011;68379;47.190;27.558;2023-07-13T07:43:49;11.70;;;6.90;;
78840;SDS011;68379;47.190;27.558;2023-07-13T07:46:18;10.00;;;6.10;;
78840;SDS011;68379;47.190;27.558;2023-07-13T07:48:48;10.40;;;7.00;;
78840;SDS011;68379;47.190;27.558;2023-07-13T07:51:17;8.00;;;6.60;;
78840;SDS011;68379;47.190;27.558;2023-07-13T07:53:47;9.20;;;6.90;;
78840;SDS011;68379;47.190;27.558;2023-07-13T07:56:16;10.90;;;7.30;;
78840;SDS011;68379;47.190;27.558;2023-07-13T07:58:46;8.80;;;6.60;;
78840;SDS011;68379;47.190;27.558;2023-07-13T08:01:15;11.20;;;7.20;;
78840;SDS011;68379;47.190;27.558;2023-07-13T08:03:44;7.80;;;6.20;;
78840;SDS011;68379;47.190;27.558;2023-07-13T08:06:14;9.10;;;6.80;;
78840;SDS011;68379;47.190;27.558;2023-07-13T08:08:43;10.10;;;7.00;;
78840;SDS011;68379;47.190;27.558;2023-07-13T08:11:16;9.70;;;7.20;;
78840;SDS011;68379;47.190;27.558;2023-07-13T08:13:46;11.50;;;7.20;;
78840;SDS011;68379;47.190;27.558;2023-07-13T08:16:15;9.20;;;6.10;;
78840;SDS011;68379;47.190;27.558;2023-07-13T08:18:45;9.90;;;5.70;;
78840;SDS011;68379;47.190;27.558;2023-07-13T08:21:14;8.40;;;6.10;;
78840;SDS011;68379;47.190;27.558;2023-07-13T08:23:44;9.20;;;6.40;;
78840;SDS011;68379;47.190;27.558;2023-07-13T08:26:13;7.60;;;6.10;;
78840;SDS011;68379;47.190;27.558;2023-07-13T08:28:43;7.60;;;6.10;;
78840;SDS011;68379;47.190;27.558;2023-07-13T08:31:12;11.30;;;6.50;;
78840;SDS011;68379;47.190;27.558;2023-07-13T08:33:42;8.30;;;6.30;;
78840;SDS011;68379;47.190;27.558;2023-07-13T08:36:11;11.10;;;6.10;;
78840;SDS011;68379;47.190;27.558;2023-07-13T08:38:41;8.00;;;5.90;;
78840;SDS011;68379;47.190;27.558;2023-07-13T08:41:11;11.20;;;6.50;;
78840;SDS011;68379;47.190;27.558;2023-07-13T08:43:42;9.50;;;6.50;;
78840;SDS011;68379;47.190;27.558;2023-07-13T08:46:16;7.90;;;6.50;;
78840;SDS011;68379;47.190;27.558;2023-07-13T08:48:50;11.20;;;6.20;;
78840;SDS011;68379;47.190;27.558;2023-07-13T08:51:28;8.60;;;6.00;;
78840;SDS011;68379;47.190;27.558;2023-07-13T08:54:09;10.10;;;5.80;;
78840;SDS011;68379;47.190;27.558;2023-07-13T08:56:46;8.50;;;5.50;;
78840;SDS011;68379;47.190;27.558;2023-07-13T08:59:20;7.40;;;6.30;;
78840;SDS011;68379;47.190;27.558;2023-07-13T09:01:56;8.30;;;5.70;;
78840;SDS011;68379;47.190;27.558;2023-07-13T09:04:34;7.60;;;5.60;;
78840;SDS011;68379;47.190;27.558;2023-07-13T09:07:12;8.80;;;5.90;;
78840;SDS011;68379;47.190;27.558;2023-07-13T09:09:53;8.60;;;5.50;;
78840;SDS011;68379;47.190;27.558;2023-07-13T09:12:35;7.70;;;5.80;;
78840;SDS011;68379;47.190;27.558;2023-07-13T09:15:21;7.90;;;6.10;;
78840;SDS011;68379;47.190;27.558;2023-07-13T09:17:59;7.10;;;5.60;;
78840;SDS011;68379;47.190;27.558;2023-07-13T09:20:34;7.50;;;5.40;;
78840;SDS011;68379;47.190;27.558;2023-07-13T09:23:10;7.80;;;6.30;;
78840;SDS011;68379;47.190;27.558;2023-07-13T09:25:46;8.20;;;5.60;;
78840;SDS011;68379;47.190;27.558;2023-07-13T09:28:23;8.20;;;5.90;;
78840;SDS011;68379;47.190;27.558;2023-07-13T09:30:55;7.50;;;5.60;;
78840;SDS011;68379;47.190;27.558;2023-07-13T09:33:29;6.80;;;5.80;;
78840;SDS011;68379;47.190;27.558;2023-07-13T09:35:59;8.00;;;5.70;;
78840;SDS011;68379;47.190;27.558;2023-07-13T09:38:29;7.80;;;5.50;;
78840;SDS011;68379;47.190;27.558;2023-07-13T09:41:14;8.40;;;5.90;;
78840;SDS011;68379;47.190;27.558;2023-07-13T09:44:01;7.30;;;5.60;;
78840;SDS011;68379;47.190;27.558;2023-07-13T09:46:44;7.70;;;6.50;;
78840;SDS011;68379;47.190;27.558;2023-07-13T09:49:22;8.70;;;6.70;;
78840;SDS011;68379;47.190;27.558;2023-07-13T09:51:58;9.20;;;6.30;;
78840;SDS011;68379;47.190;27.558;2023-07-13T09:54:29;7.80;;;6.50;;
78840;SDS011;68379;47.190;27.558;2023-07-13T09:57:00;7.30;;;6.10;;
78840;SDS011;68379;47.190;27.558;2023-07-13T09:59:32;7.90;;;6.20;;
78840;SDS011;68379;47.190;27.558;2023-07-13T10:04:56;10.70;;;6.70;;
78840;SDS011;68379;47.190;27.558;2023-07-13T10:07:27;7.30;;;6.10;;
78840;SDS011;68379;47.190;27.558;2023-07-13T10:09:59;8.80;;;6.00;;
78840;SDS011;68379;47.190;27.558;2023-07-13T10:12:30;7.70;;;5.70;;
78840;SDS011;68379;47.190;27.558;2023-07-13T10:15:13;7.90;;;6.50;;
78840;SDS011;68379;47.190;27.558;2023-07-13T10:17:46;9.00;;;6.40;;
78840;SDS011;68379;47.190;27.558;2023-07-13T10:20:17;11.10;;;6.10;;
78840;SDS011;68379;47.190;27.558;2023-07-13T10:22:49;8.80;;;6.50;;
78840;SDS011;68379;47.190;27.558;2023-07-13T10:25:23;10.40;;;7.20;;
78840;SDS011;68379;47.190;27.558;2023-07-13T10:27:54;7.50;;;6.40;;
78840;SDS011;68379;47.190;27.558;2023-07-13T10:30:28;8.40;;;6.10;;
78840;SDS011;68379;47.190;27.558;2023-07-13T10:33:02;7.30;;;5.80;;
78840;SDS011;68379;47.190;27.558;2023-07-13T10:35:38;8.80;;;6.60;;
78840;SDS011;68379;47.190;27.558;2023-07-13T10:38:11;9.00;;;6.30;;
78840;SDS011;68379;47.190;27.558;2023-07-13T10:40:43;8.40;;;5.90;;
78840;SDS011;68379;47.190;27.558;2023-07-13T10:43:21;7.90;;;6.30;;
78840;SDS011;68379;47.190;27.558;2023-07-13T10:45:54;7.50;;;6.20;;
78840;SDS011;68379;47.190;27.558;2023-07-13T10:48:24;7.10;;;6.40;;
78840;SDS011;68379;47.190;27.558;2023-07-13T10:50:56;10.00;;;6.40;;
78840;SDS011;68379;47.190;27.558;2023-07-13T10:53:29;7.70;;;6.00;;
78840;SDS011;68379;47.190;27.558;2023-07-13T10:56:01;8.30;;;6.40;;
78840;SDS011;68379;47.190;27.558;2023-07-13T10:58:34;7.30;;;5.80;;
78840;SDS011;68379;47.190;27.558;2023-07-13T11:01:08;8.50;;;6.50;;
78840;SDS011;68379;47.190;27.558;2023-07-13T11:03:49;8.10;;;6.30;;
78840;SDS011;68379;47.190;27.558;2023-07-13T11:06:31;7.80;;;6.00;;
78840;SDS011;68379;47.190;27.558;2023-07-13T11:09:19;8.80;;;5.60;;
78840;SDS011;68379;47.190;27.558;2023-07-13T11:12:00;5.80;;;5.30;;
78840;SDS011;68379;47.190;27.558;2023-07-13T11:14:35;7.80;;;5.60;;
78840;SDS011;68379;47.190;27.558;2023-07-13T11:17:29;6.00;;;5.10;;
78840;SDS011;68379;47.190;27.558;2023-07-13T11:23:15;6.50;;;5.60;;
78840;SDS011;68379;47.190;27.558;2023-07-13T11:25:48;8.70;;;5.70;;
78840;SDS011;68379;47.190;27.558;2023-07-13T11:28:20;6.80;;;5.40;;
78840;SDS011;68379;47.190;27.558;2023-07-13T11:31:02;9.10;;;5.40;;
78840;SDS011;68379;47.190;27.558;2023-07-13T11:33:56;8.40;;;5.70;;
78840;SDS011;68379;47.190;27.558;2023-07-13T11:36:31;5.90;;;4.90;;
78840;SDS011;68379;47.190;27.558;2023-07-13T11:39:12;6.50;;;5.20;;
78840;SDS011;68379;47.190;27.558;2023-07-13T11:41:50;6.70;;;5.20;;
78840;SDS011;68379;47.190;27.558;2023-07-13T11:44:24;6.30;;;5.20;;
78840;SDS011;68379;47.190;27.558;2023-07-13T11:46:55;7.00;;;5.70;;
78840;SDS011;68379;47.190;27.558;2023-07-13T11:49:29;6.60;;;5.40;;
78840;SDS011;68379;47.190;27.558;2023-07-13T11:52:12;6.10;;;5.10;;
78840;SDS011;68379;47.190;27.558;2023-07-13T11:54:47;6.60;;;5.00;;
78840;SDS011;68379;47.190;27.558;2023-07-13T11:57:24;6.90;;;5.40;;
78840;SDS011;68379;47.190;27.558;2023-07-13T12:02:25;7.50;;;4.70;;
78840;SDS011;68379;47.190;27.558;2023-07-13T12:04:57;4.50;;;4.00;;
78840;SDS011;68379;47.190;27.558;2023-07-13T12:07:32;7.20;;;3.80;;
78840;SDS011;68379;47.190;27.558;2023-07-13T12:10:02;5.50;;;4.30;;
78840;SDS011;68379;47.190;27.558;2023-07-13T12:12:47;34.00;;;2.80;;
78840;SDS011;68379;47.190;27.558;2023-07-13T12:15:20;16.00;;;1.70;;
78840;SDS011;68379;47.190;27.558;2023-07-13T12:17:51;17.00;;;1.70;;
78840;SDS011;68379;47.190;27.558;2023-07-13T12:20:24;10.40;;;1.10;;
78840;SDS011;68379;47.190;27.558;2023-07-13T12:22:54;12.00;;;1.40;;
78840;SDS011;68379;47.190;27.558;2023-07-13T12:25:24;9.10;;;1.10;;
78840;SDS011;68379;47.190;27.558;2023-07-13T12:27:54;7.40;;;1.20;;
78840;SDS011;68379;47.190;27.558;2023-07-13T12:30:27;7.80;;;1.20;;
78840;SDS011;68379;47.190;27.558;2023-07-13T12:33:01;6.90;;;1.20;;
78840;SDS011;68379;47.190;27.558;2023-07-13T12:35:39;7.90;;;1.50;;
78840;SDS011;68379;47.190;27.558;2023-07-13T12:38:11;4.20;;;1.20;;
78840;SDS011;68379;47.190;27.558;2023-07-13T12:40:41;6.00;;;1.20;;
78840;SDS011;68379;47.190;27.558;2023-07-13T12:43:11;7.60;;;0.90;;
78840;SDS011;68379;47.190;27.558;2023-07-13T12:45:55;4.20;;;1.30;;
78840;SDS011;68379;47.190;27.558;2023-07-13T12:48:26;6.00;;;1.00;;
78840;SDS011;68379;47.190;27.558;2023-07-13T12:50:55;5.90;;;2.30;;
78840;SDS011;68379;47.190;27.558;2023-07-13T12:53:29;6.20;;;1.70;;
78840;SDS011;68379;47.190;27.558;2023-07-13T12:56:11;6.20;;;2.20;;
78840;SDS011;68379;47.190;27.558;2023-07-13T12:58:46;7.00;;;1.40;;
78840;SDS011;68379;47.190;27.558;2023-07-13T13:01:22;4.50;;;1.40;;
78840;SDS011;68379;47.190;27.558;2023-07-13T13:06:24;6.80;;;1.30;;
78840;SDS011;68379;47.190;27.558;2023-07-13T13:08:55;5.00;;;1.20;;
78840;SDS011;68379;47.190;27.558;2023-07-13T13:11:26;4.60;;;1.20;;
78840;SDS011;68379;47.190;27.558;2023-07-13T13:13:57;8.10;;;1.90;;
78840;SDS011;68379;47.190;27.558;2023-07-13T13:16:30;3.30;;;1.30;;
78840;SDS011;68379;47.190;27.558;2023-07-13T13:19:01;7.10;;;2.30;;
78840;SDS011;68379;47.190;27.558;2023-07-13T13:21:41;4.90;;;2.10;;
78840;SDS011;68379;47.190;27.558;2023-07-13T13:24:12;7.10;;;1.40;;
78840;SDS011;68379;47.190;27.558;2023-07-13T13:26:43;4.80;;;1.50;;
78840;SDS011;68379;47.190;27.558;2023-07-13T13:29:13;3.90;;;1.70;;
78840;SDS011;68379;47.190;27.558;2023-07-13T13:31:44;5.30;;;2.20;;
78840;SDS011;68379;47.190;27.558;2023-07-13T13:34:14;4.00;;;2.00;;
78840;SDS011;68379;47.190;27.558;2023-07-13T13:36:46;6.30;;;1.60;;
78840;SDS011;68379;47.190;27.558;2023-07-13T13:39:18;7.80;;;2.20;;
78840;SDS011;68379;47.190;27.558;2023-07-13T13:41:51;7.70;;;2.70;;
78840;SDS011;68379;47.190;27.558;2023-07-13T13:44:21;6.40;;;2.60;;
78840;SDS011;68379;47.190;27.558;2023-07-13T13:46:52;9.70;;;1.90;;
78840;SDS011;68379;47.190;27.558;2023-07-13T13:49:23;5.90;;;2.70;;
78840;SDS011;68379;47.190;27.558;2023-07-13T13:51:54;6.90;;;2.20;;
78840;SDS011;68379;47.190;27.558;2023-07-13T13:54:24;5.50;;;2.00;;
78840;SDS011;68379;47.190;27.558;2023-07-13T13:56:54;5.50;;;2.30;;
78840;SDS011;68379;47.190;27.558;2023-07-13T13:59:26;7.80;;;2.40;;
78840;SDS011;68379;47.190;27.558;2023-07-13T14:01:55;6.10;;;2.20;;
78840;SDS011;68379;47.190;27.558;2023-07-13T14:04:27;6.50;;;1.90;;
78840;SDS011;68379;47.190;27.558;2023-07-13T14:06:56;5.50;;;1.90;;
78840;SDS011;68379;47.190;27.558;2023-07-13T14:09:30;5.40;;;1.70;;
78840;SDS011;68379;47.190;27.558;2023-07-13T14:11:59;6.40;;;1.80;;
78840;SDS011;68379;47.190;27.558;2023-07-13T14:14:29;4.80;;;2.00;;
78840;SDS011;68379;47.190;27.558;2023-07-13T14:17:01;6.50;;;2.90;;
78840;SDS011;68379;47.190;27.558;2023-07-13T14:19:35;6.60;;;2.10;;
78840;SDS011;68379;47.190;27.558;2023-07-13T14:22:06;7.70;;;2.40;;
78840;SDS011;68379;47.190;27.558;2023-07-13T14:24:38;5.80;;;2.80;;
78840;SDS011;68379;47.190;27.558;2023-07-13T14:27:07;6.20;;;3.00;;
78840;SDS011;68379;47.190;27.558;2023-07-13T14:29:38;7.20;;;1.80;;
78840;SDS011;68379;47.190;27.558;2023-07-13T14:32:10;8.00;;;1.90;;
78840;SDS011;68379;47.190;27.558;2023-07-13T14:34:43;5.10;;;2.20;;
78840;SDS011;68379;47.190;27.558;2023-07-13T14:37:14;7.40;;;2.20;;
78840;SDS011;68379;47.190;27.558;2023-07-13T14:39:47;7.70;;;2.40;;
78840;SDS011;68379;47.190;27.558;2023-07-13T14:42:20;5.50;;;1.70;;
78840;SDS011;68379;47.190;27.558;2023-07-13T14:44:55;5.90;;;2.00;;
78840;SDS011;68379;47.190;27.558;2023-07-13T14:47:24;7.00;;;2.10;;
78840;SDS011;68379;47.190;27.558;2023-07-13T14:49:54;5.90;;;1.90;;
78840;SDS011;68379;47.190;27.558;2023-07-13T14:52:26;8.00;;;2.10;;
78840;SDS011;68379;47.190;27.558;2023-07-13T14:54:55;6.90;;;2.00;;
78840;SDS011;68379;47.190;27.558;2023-07-13T14:57:24;5.50;;;1.80;;
78840;SDS011;68379;47.190;27.558;2023-07-13T14:59:53;6.60;;;2.00;;
78840;SDS011;68379;47.190;27.558;2023-07-13T15:02:26;8.40;;;2.30;;
78840;SDS011;68379;47.190;27.558;2023-07-13T15:04:58;5.10;;;1.40;;
78840;SDS011;68379;47.190;27.558;2023-07-13T15:07:27;6.00;;;1.70;;
78840;SDS011;68379;47.190;27.558;2023-07-13T15:09:57;7.70;;;2.20;;
78840;SDS011;68379;47.190;27.558;2023-07-13T15:12:31;5.40;;;1.70;;